Главная страница
METAR-TAF:

METAR-TAF

Аэропорты :

Нджамена, Чад

широта: 12-08N, долгота: 015-02E, высота над уровнем моря: 295 м

Текущие метеонаблюдения

Эта сводка был подготовлена 1 час и 1 минут назад, в 20:00 UTC
Ветер 7 Узел от северо-западный
Температура 23°C
Влажность 29%
Давление 1015 hPa
Видимость: 8000 м

METAR: FTTJ 122000Z 31007KT 8000 NSC 23/04 Q1015 NOSIG

Время: 22:01 (21:01 UTC)

Прогноз

Эта сводка был подготовлена 4 часа и 1 минут назад, в 17:00 UTC
Прогноз действительный с 12-го 18 UTC до 13-го 24 UTC
Ветер 6 Узел от северно-северо-западный
Видимость: 6000 м
временами
С 13-го 02 UTC до 13-го 07 UTC
Видимость: 3500 м
пыль, взвешенная над обширной территорией
временами
С 13-го 07 UTC до 13-го 14 UTC
Ветер 12 Узел от северо-северо-восточный

TAF: FTTJ 121700Z 1218/1324 34006KT 6000 NSC TEMPO 1302/1307 3500 DU TEMPO 1307/1314 02012KT

Метеонаблюдения и прогнозы для более 4000 аэропортов (сводки METAR и TAF).

Имеющиеся станции представлены на карте желтыми и красными точками.

Чтобы увидеть название станции, наведите на нее мышь.

Затем щелкните, чтобы увидеть метеонаблюдения и метеопрогнозы.

Управление картой: чтобы увеличить масштаб, щелкните зеленые кнопки с черным крестиком; чтобы уменьшить масштаб, щелкните зеленую кнопку с тире; для просмотра соседних карт щелкайте зеленые стрелки.


METAR-TAF: